DFOR weather

Orodara Airport
Orodara, Kenedougou, Burkina Faso

Public forecast

Using degrees Celsius for public forecast. Weather courtesy of forecast.io.

METAR (pilot weather report)

Closest report is Bobo Dioulasso Airport, 37.0 nm (68.6 km) ENE. Retrieved 2019/03/23 23:00 UTC (14 minutes ago):

DFOO 232300Z 26001KT CAVOK 27/09 Q1012

TAF (pilot weather forecast)

Closest forecast is Bobo Dioulasso Airport, 37.0 nm (68.6 km) ENE. Retrieved 2019/03/23 18:21 UTC (5 hours ago):

TAF DFOO 231700Z 2318/2418 03008KT 8000 NSC